createdAt,value
2022-08-03T00:02:16.003Z,98899.59
2022-08-03T00:04:42.721Z,98895.81
2022-08-03T00:07:09.217Z,98895.44
2022-08-03T00:09:36.506Z,98894.69
2022-08-03T00:12:03.468Z,98896.63
2022-08-03T00:14:30.856Z,98893.50
2022-08-03T00:16:58.088Z,98891.13
2022-08-03T00:19:24.688Z,98891.06
2022-08-03T00:21:51.222Z,98882.63
2022-08-03T00:24:17.812Z,98890.81
2022-08-03T00:26:44.362Z,98886.13
2022-08-03T00:29:11.434Z,98883.25
2022-08-03T00:31:51.424Z,98887.41
2022-08-03T00:34:36.307Z,98881.31
2022-08-03T00:37:14.588Z,98891.25
2022-08-03T00:39:45.858Z,98879.69
2022-08-03T00:42:12.456Z,98883.41
2022-08-03T00:44:41.079Z,98881.56
2022-08-03T00:47:10.226Z,98886.97
2022-08-03T00:49:41.450Z,98879.78
2022-08-03T00:52:17.270Z,98883.44
2022-08-03T00:54:43.891Z,98876.94
2022-08-03T00:57:10.631Z,98883.25
2022-08-03T00:59:44.673Z,98881.25
2022-08-03T01:02:11.362Z,98885.16
2022-08-03T01:04:37.937Z,98878.09
2022-08-03T01:07:19.499Z,98877.19
2022-08-03T01:09:52.749Z,98872.97
2022-08-03T01:12:28.415Z,98874.97
2022-08-03T01:15:28.758Z,98872.19
2022-08-03T01:18:20.632Z,98878.25
2022-08-03T01:20:55.824Z,98874.97
2022-08-03T01:23:54.307Z,98875.16
2022-08-03T01:26:42.875Z,98865.22
2022-08-03T01:29:12.181Z,98861.50
2022-08-03T01:32:58.773Z,98869.41
2022-08-03T01:34:47.063Z,98872.75
2022-08-03T01:37:19.100Z,98865.06
2022-08-03T01:39:46.403Z,98874.75
2022-08-03T01:42:14.968Z,98870.06
2022-08-03T01:44:45.062Z,98867.94
2022-08-03T01:47:12.884Z,98869.69
2022-08-03T01:49:43.179Z,98868.75
2022-08-03T01:52:11.480Z,98870.50
2022-08-03T01:54:43.332Z,98869.69
2022-08-03T01:57:10.277Z,98857.91
2022-08-03T01:59:38.953Z,98866.75
2022-08-03T02:02:31.800Z,98857.75
2022-08-03T02:04:57.723Z,98863.13
2022-08-03T02:07:26.887Z,98865.81
2022-08-03T02:09:55.830Z,98864.75
2022-08-03T02:12:25.105Z,98867.50
2022-08-03T02:14:51.994Z,98863.00
2022-08-03T02:17:39.070Z,98863.00
2022-08-03T02:20:07.387Z,98866.50
2022-08-03T02:22:34.926Z,98862.75
2022-08-03T02:25:01.839Z,98866.19
2022-08-03T02:27:32.116Z,98866.25
2022-08-03T02:30:09.917Z,98864.50
2022-08-03T02:32:40.344Z,98870.69
2022-08-03T02:35:11.483Z,98865.31
2022-08-03T02:37:45.028Z,98857.09
2022-08-03T02:40:19.225Z,98857.03
2022-08-03T02:42:48.602Z,98857.91
2022-08-03T02:45:18.358Z,98852.66
2022-08-03T02:47:54.320Z,98851.78
2022-08-03T02:50:22.997Z,98847.28
2022-08-03T02:52:51.128Z,98843.72
2022-08-03T02:55:19.691Z,98846.47
2022-08-03T02:57:47.707Z,98845.63
2022-08-03T03:00:27.628Z,98846.41
2022-08-03T03:02:58.381Z,98839.09
2022-08-03T03:05:55.376Z,98840.81
2022-08-03T03:08:18.549Z,98844.09
2022-08-03T03:10:48.826Z,98842.00
2022-08-03T03:13:21.125Z,98842.38
2022-08-03T03:15:48.565Z,98835.50
2022-08-03T03:18:22.084Z,98835.56
2022-08-03T03:20:51.687Z,98831.97
2022-08-03T03:23:22.805Z,98832.97
2022-08-03T03:25:50.329Z,98828.59
2022-08-03T03:28:17.413Z,98836.72
2022-08-03T03:30:44.387Z,98835.94
2022-08-03T03:33:12.047Z,98838.84
2022-08-03T03:35:40.148Z,98834.63
2022-08-03T03:38:09.269Z,98843.09
2022-08-03T03:40:36.807Z,98844.69
2022-08-03T03:43:07.235Z,98837.56
2022-08-03T03:45:35.144Z,98832.31
2022-08-03T03:48:04.143Z,98844.81
2022-08-03T03:50:35.479Z,98839.44
2022-08-03T03:53:03.525Z,98833.94
2022-08-03T03:55:30.595Z,98836.53
2022-08-03T03:57:57.185Z,98838.06
2022-08-03T04:00:23.887Z,98838.16
2022-08-03T04:02:50.414Z,98840.97
2022-08-03T04:05:35.487Z,98846.31
2022-08-03T04:08:24.957Z,98835.69
2022-08-03T04:11:35.391Z,98841.03
2022-08-03T04:14:04.698Z,98843.94
2022-08-03T04:16:35.187Z,98847.41
2022-08-03T04:19:08.193Z,98849.28
2022-08-03T04:21:37.450Z,98851.91
2022-08-03T04:24:07.515Z,98842.84
2022-08-03T04:26:39.506Z,98848.41
2022-08-03T04:29:07.907Z,98853.78
2022-08-03T04:31:36.786Z,98856.00
2022-08-03T04:34:04.355Z,98855.19
2022-08-03T04:36:36.730Z,98858.75
2022-08-03T04:39:16.235Z,98867.69
2022-08-03T04:42:07.666Z,98862.13
2022-08-03T04:44:35.708Z,98864.75
2022-08-03T04:47:02.443Z,98862.19
2022-08-03T04:49:31.053Z,98861.97
2022-08-03T04:51:58.433Z,98863.53
2022-08-03T04:54:25.069Z,98869.91
2022-08-03T04:56:51.557Z,98862.06
2022-08-03T04:59:18.118Z,98870.88
2022-08-03T05:01:44.771Z,98869.97
2022-08-03T05:04:11.384Z,98864.50
2022-08-03T05:06:39.801Z,98867.88
2022-08-03T05:09:14.981Z,98866.06
2022-08-03T05:12:01.538Z,98882.22
2022-08-03T05:14:28.480Z,98873.81
2022-08-03T05:16:55.061Z,98880.66
2022-08-03T05:19:21.645Z,98873.31
2022-08-03T05:21:51.910Z,98875.13
2022-08-03T05:24:19.280Z,98868.66
2022-08-03T05:26:45.818Z,98870.81
2022-08-03T05:29:12.388Z,98873.16
2022-08-03T05:31:38.915Z,98876.63
2022-08-03T05:34:05.567Z,98875.25
2022-08-03T05:36:32.590Z,98877.56
2022-08-03T05:39:02.616Z,98874.69
2022-08-03T05:41:37.151Z,98862.56
2022-08-03T05:44:04.493Z,98872.03
2022-08-03T05:46:31.094Z,98868.19
2022-08-03T05:48:57.697Z,98862.75
2022-08-03T05:51:24.353Z,98861.81
2022-08-03T05:53:50.986Z,98863.47
2022-08-03T05:56:17.556Z,98861.31
2022-08-03T05:58:45.925Z,98856.59
2022-08-03T06:01:12.714Z,98864.56
2022-08-03T06:03:39.368Z,98861.63
2022-08-03T06:06:05.998Z,98866.72
2022-08-03T06:08:32.709Z,98863.13
2022-08-03T06:10:59.284Z,98863.84
2022-08-03T06:13:25.831Z,98869.94
2022-08-03T06:15:52.359Z,98858.75
2022-08-03T06:18:19.070Z,98863.91
2022-08-03T06:20:45.567Z,98863.56
2022-08-03T06:23:16.097Z,98868.41
2022-08-03T06:25:44.361Z,98863.63
2022-08-03T06:28:18.975Z,98871.31
2022-08-03T06:30:50.722Z,98868.09
2022-08-03T06:33:17.312Z,98865.25
2022-08-03T06:35:45.229Z,98869.25
2022-08-03T06:38:15.130Z,98873.69
2022-08-03T06:40:41.815Z,98863.41
2022-08-03T06:43:12.329Z,98871.69
2022-08-03T06:45:39.747Z,98872.34
2022-08-03T06:48:08.303Z,98877.94
2022-08-03T06:50:36.550Z,98881.09
2022-08-03T06:53:04.566Z,98876.13
2022-08-03T06:55:32.356Z,98876.22
2022-08-03T06:58:03.107Z,98876.41
2022-08-03T07:00:31.007Z,98869.63
2022-08-03T07:02:58.580Z,98871.66
2022-08-03T07:05:25.606Z,98876.91
2022-08-03T07:07:56.837Z,98883.28
2022-08-03T07:10:23.592Z,98878.13
2022-08-03T07:12:55.744Z,98877.78
2022-08-03T07:15:54.656Z,98879.47
2022-08-03T07:18:10.148Z,98876.88
2022-08-03T07:20:36.762Z,98884.81
2022-08-03T07:23:03.375Z,98885.63
2022-08-03T07:25:29.864Z,98884.25
2022-08-03T07:27:56.500Z,98889.38
2022-08-03T07:30:23.528Z,98886.03
2022-08-03T07:32:50.868Z,98881.13
2022-08-03T07:35:25.032Z,98892.13
2022-08-03T07:37:54.524Z,98889.06
2022-08-03T07:40:22.049Z,98891.22
2022-08-03T07:42:53.315Z,98889.56
2022-08-03T07:45:23.268Z,98892.22
2022-08-03T07:47:54.268Z,98897.28
2022-08-03T07:50:21.956Z,98900.81
2022-08-03T07:52:49.561Z,98888.97
2022-08-03T07:55:17.933Z,98890.16
2022-08-03T07:57:44.620Z,98898.06
2022-08-03T08:00:19.520Z,98891.09
2022-08-03T08:02:46.426Z,98894.84
2022-08-03T08:05:13.197Z,98883.31
2022-08-03T08:07:40.492Z,98892.63
2022-08-03T08:10:08.725Z,98892.25
2022-08-03T08:12:35.981Z,98889.03
2022-08-03T08:15:03.837Z,98895.75
2022-08-03T08:17:30.419Z,98892.19
2022-08-03T08:19:57.009Z,98896.03
2022-08-03T08:22:29.889Z,98896.69
2022-08-03T08:24:58.310Z,98891.91
2022-08-03T08:27:25.019Z,98889.69
2022-08-03T08:29:54.180Z,98886.66
2022-08-03T08:32:21.920Z,98883.19
2022-08-03T08:34:48.431Z,98898.72
2022-08-03T08:37:15.206Z,98891.16
2022-08-03T08:39:44.548Z,98900.69
2022-08-03T08:42:11.150Z,98892.44
2022-08-03T08:44:37.823Z,98901.59
2022-08-03T08:47:04.819Z,98887.00
2022-08-03T08:49:35.059Z,98885.72
2022-08-03T08:52:29.481Z,98886.38
2022-08-03T08:55:00.152Z,98887.03
2022-08-03T08:57:42.262Z,98898.66
2022-08-03T09:00:15.238Z,98894.00
2022-08-03T09:02:43.462Z,98885.88
2022-08-03T09:05:14.797Z,98891.19
2022-08-03T09:07:45.747Z,98885.09
2022-08-03T09:10:14.524Z,98889.34
2022-08-03T09:12:46.237Z,98884.38
2022-08-03T09:15:28.202Z,98882.03
2022-08-03T09:17:57.287Z,98888.22
2022-08-03T09:20:26.417Z,98883.88
2022-08-03T09:23:00.294Z,98882.66
2022-08-03T09:25:43.344Z,98894.94
2022-08-03T09:28:12.480Z,98887.97
2022-08-03T09:30:44.854Z,98888.75
2022-08-03T09:33:16.477Z,98876.19
2022-08-03T09:35:53.706Z,98881.56
2022-08-03T09:38:28.062Z,98882.03
2022-08-03T09:41:00.071Z,98890.25
2022-08-03T09:43:28.066Z,98888.13
2022-08-03T09:46:04.118Z,98887.66
2022-08-03T09:48:32.532Z,98882.81
2022-08-03T09:51:13.026Z,98881.94
2022-08-03T09:53:59.007Z,98892.25
2022-08-03T09:56:39.063Z,98881.56
2022-08-03T09:59:05.803Z,98884.38
2022-08-03T10:01:34.693Z,98885.06
2022-08-03T10:04:04.322Z,98892.84
2022-08-03T10:06:31.417Z,98889.84
2022-08-03T10:09:15.512Z,98879.31
2022-08-03T10:11:43.872Z,98880.56
2022-08-03T10:14:19.068Z,98877.31
2022-08-03T10:16:47.664Z,98882.50
2022-08-03T10:19:15.531Z,98875.03
2022-08-03T10:21:49.418Z,98872.97
2022-08-03T10:24:21.015Z,98866.66
2022-08-03T10:26:49.720Z,98866.25
2022-08-03T10:29:24.751Z,98873.06
2022-08-03T10:31:58.073Z,98872.84
2022-08-03T10:34:27.191Z,98865.28
2022-08-03T10:36:58.211Z,98855.91
2022-08-03T10:39:29.034Z,98860.66
2022-08-03T10:41:58.704Z,98854.41
2022-08-03T10:44:33.710Z,98866.28
2022-08-03T10:47:01.533Z,98858.63
2022-08-03T10:49:34.697Z,98857.03
2022-08-03T10:52:13.183Z,98855.03
2022-08-03T10:55:10.093Z,98855.59
2022-08-03T10:57:45.858Z,98840.88
2022-08-03T11:00:18.410Z,98851.09
2022-08-03T11:03:11.391Z,98850.13
2022-08-03T11:05:40.987Z,98847.59
2022-08-03T11:08:30.899Z,98848.75
2022-08-03T11:11:26.155Z,98852.75
2022-08-03T11:14:12.788Z,98846.66
2022-08-03T11:16:42.263Z,98845.59
2022-08-03T11:19:11.029Z,98844.88
2022-08-03T11:21:50.247Z,98844.25
2022-08-03T11:24:41.357Z,98834.41
2022-08-03T11:27:21.431Z,98832.66
2022-08-03T11:30:08.268Z,98839.22
2022-08-03T11:32:37.752Z,98825.91
2022-08-03T11:35:26.520Z,98823.41
2022-08-03T11:38:03.136Z,98831.72
2022-08-03T11:40:47.042Z,98828.53
2022-08-03T11:43:22.686Z,98821.22
2022-08-03T11:45:57.511Z,98832.81
2022-08-03T11:48:27.843Z,98821.66
2022-08-03T11:50:54.682Z,98821.91
2022-08-03T11:53:21.246Z,98820.66
2022-08-03T11:55:53.131Z,98810.88
2022-08-03T11:59:13.240Z,98808.47
2022-08-03T12:01:12.347Z,98820.56
2022-08-03T12:03:39.060Z,98820.53
2022-08-03T12:06:12.681Z,98815.63
2022-08-03T12:08:40.601Z,98819.50
2022-08-03T12:11:09.343Z,98813.50
2022-08-03T12:14:45.121Z,98810.38
2022-08-03T12:16:37.787Z,98815.31
2022-08-03T12:19:06.700Z,98803.53
2022-08-03T12:21:33.407Z,98807.09
2022-08-03T12:24:04.764Z,98810.72
2022-08-03T12:26:57.224Z,98802.56
2022-08-03T12:29:26.288Z,98813.81
2022-08-03T12:31:52.871Z,98813.22
2022-08-03T12:34:19.698Z,98805.19
2022-08-03T12:36:56.291Z,98808.63
2022-08-03T12:39:24.898Z,98792.34
2022-08-03T12:41:55.695Z,98789.22
2022-08-03T12:44:33.768Z,98791.88
2022-08-03T12:47:02.459Z,98792.13
2022-08-03T12:49:30.419Z,98795.47
2022-08-03T12:52:05.257Z,98795.72
2022-08-03T12:54:35.917Z,98793.97
2022-08-03T12:57:11.133Z,98787.59
2022-08-03T12:59:56.015Z,98784.72
2022-08-03T13:02:25.070Z,98786.34
2022-08-03T13:04:54.127Z,98784.69
2022-08-03T13:07:21.853Z,98790.53
2022-08-03T13:09:53.014Z,98783.84
2022-08-03T13:12:21.619Z,98788.47
2022-08-03T13:14:50.832Z,98783.00
2022-08-03T13:17:18.044Z,98783.22
2022-08-03T13:19:46.363Z,98782.34
2022-08-03T13:22:17.459Z,98781.06
2022-08-03T13:24:45.714Z,98782.31
2022-08-03T13:28:02.665Z,98784.22
2022-08-03T13:30:00.012Z,98779.84
2022-08-03T13:32:26.560Z,98781.69
2022-08-03T13:34:53.259Z,98787.25
2022-08-03T13:37:20.082Z,98782.06
2022-08-03T13:39:57.645Z,98780.03
2022-08-03T13:42:26.645Z,98778.31
2022-08-03T13:44:53.261Z,98766.94
2022-08-03T13:47:20.598Z,98762.53
2022-08-03T13:49:59.421Z,98764.84
2022-08-03T13:52:27.944Z,98764.72
2022-08-03T13:54:54.591Z,98760.47
2022-08-03T13:58:04.488Z,98759.78
2022-08-03T14:00:08.583Z,98757.84
2022-08-03T14:02:35.166Z,98751.75
2022-08-03T14:05:01.717Z,98751.47
2022-08-03T14:07:28.246Z,98750.47
2022-08-03T14:09:58.194Z,98750.81
2022-08-03T14:12:24.729Z,98741.03
2022-08-03T14:14:51.235Z,98742.66
2022-08-03T14:17:18.068Z,98743.53
2022-08-03T14:19:53.561Z,98736.34
2022-08-03T14:22:21.138Z,98736.28
2022-08-03T14:24:47.697Z,98734.94
2022-08-03T14:27:16.350Z,98738.38
2022-08-03T14:29:42.910Z,98745.81
2022-08-03T14:32:12.899Z,98739.50
2022-08-03T14:34:40.547Z,98740.63
2022-08-03T14:37:07.101Z,98745.38
2022-08-03T14:42:20.463Z,98740.91
2022-08-03T14:44:48.033Z,98742.22
2022-08-03T14:47:14.789Z,98743.72
2022-08-03T14:50:37.901Z,98737.16
2022-08-03T14:52:28.627Z,98740.50
2022-08-03T14:54:55.210Z,98733.03
2022-08-03T14:57:22.104Z,98735.53
2022-08-03T14:59:56.851Z,98729.56
2022-08-03T15:02:24.416Z,98726.38
2022-08-03T15:04:51.487Z,98726.59
2022-08-03T15:07:18.369Z,98726.34
2022-08-03T15:09:45.107Z,98728.31
2022-08-03T15:12:11.668Z,98718.09
2022-08-03T15:14:39.094Z,98716.50
2022-08-03T15:17:06.236Z,98707.66
2022-08-03T15:20:03.461Z,98719.63
2022-08-03T15:22:20.736Z,98711.09
2022-08-03T15:24:56.172Z,98708.34
2022-08-03T15:27:23.278Z,98711.84
2022-08-03T15:30:05.159Z,98718.22
2022-08-03T15:32:33.841Z,98711.25
2022-08-03T15:35:00.681Z,98712.56
2022-08-03T15:37:27.720Z,98707.72
2022-08-03T15:39:59.537Z,98709.69
2022-08-03T15:42:28.537Z,98709.06
2022-08-03T15:44:55.209Z,98710.50
2022-08-03T15:47:22.135Z,98715.09
2022-08-03T15:49:48.908Z,98707.19
2022-08-03T15:52:15.476Z,98712.75
2022-08-03T15:54:42.293Z,98711.88
2022-08-03T15:57:08.819Z,98712.16
2022-08-03T15:59:35.374Z,98709.06
2022-08-03T16:02:02.083Z,98703.03
2022-08-03T16:04:28.834Z,98702.19
2022-08-03T16:06:55.388Z,98708.69
2022-08-03T16:09:24.121Z,98699.66
2022-08-03T16:12:15.695Z,98703.78
2022-08-03T16:14:53.419Z,98701.03
2022-08-03T16:17:21.616Z,98695.84
2022-08-03T16:19:48.575Z,98694.13
2022-08-03T16:22:17.435Z,98694.59
2022-08-03T16:24:46.897Z,98694.34
2022-08-03T16:27:36.667Z,98701.66
2022-08-03T16:30:00.050Z,98696.78
2022-08-03T16:32:26.552Z,98702.03
2022-08-03T16:34:53.254Z,98701.53
2022-08-03T16:37:38.030Z,98701.34
2022-08-03T16:40:17.664Z,98697.66
2022-08-03T16:42:48.825Z,98699.72
2022-08-03T16:45:15.412Z,98698.22
2022-08-03T16:47:42.069Z,98694.28
2022-08-03T16:50:15.939Z,98698.00
2022-08-03T16:52:47.677Z,98697.16
2022-08-03T16:55:15.998Z,98699.53
2022-08-03T16:58:03.754Z,98702.53
2022-08-03T17:00:33.386Z,98693.59
2022-08-03T17:03:04.354Z,98690.84
2022-08-03T17:05:50.807Z,98688.47
2022-08-03T17:08:26.928Z,98694.06
2022-08-03T17:10:54.431Z,98697.50
2022-08-03T17:13:22.470Z,98694.53
2022-08-03T17:16:00.942Z,98697.81
2022-08-03T17:18:37.666Z,98701.00
2022-08-03T17:21:10.157Z,98701.56
2022-08-03T17:23:44.642Z,98698.31
2022-08-03T17:26:21.056Z,98705.53
2022-08-03T17:28:57.499Z,98702.56
2022-08-03T17:31:31.234Z,98700.03
2022-08-03T17:34:01.418Z,98698.25
2022-08-03T17:36:47.656Z,98700.75
2022-08-03T17:39:16.804Z,98700.59
2022-08-03T17:41:50.133Z,98705.03
2022-08-03T17:44:28.919Z,98702.88
2022-08-03T17:46:59.840Z,98709.03
2022-08-03T17:49:27.868Z,98704.91
2022-08-03T17:52:02.988Z,98710.03
2022-08-03T17:54:29.889Z,98706.28
2022-08-03T17:57:22.417Z,98705.63
2022-08-03T17:59:56.075Z,98707.69
2022-08-03T18:03:12.472Z,98705.06
2022-08-03T18:06:11.499Z,98702.44
2022-08-03T18:08:33.711Z,98708.25
2022-08-03T18:11:14.811Z,98713.06
2022-08-03T18:14:16.501Z,98712.75
2022-08-03T18:16:56.385Z,98712.00
2022-08-03T18:20:02.610Z,98712.72
2022-08-03T18:22:13.605Z,98713.38
2022-08-03T18:24:42.188Z,98713.16
2022-08-03T18:27:10.883Z,98709.59
2022-08-03T18:29:41.558Z,98715.56
2022-08-03T18:32:25.187Z,98702.94
2022-08-03T18:34:55.893Z,98713.28
2022-08-03T18:37:26.202Z,98716.88
2022-08-03T18:39:57.943Z,98716.19
2022-08-03T18:42:26.357Z,98715.44
2022-08-03T18:44:56.491Z,98715.78
2022-08-03T18:47:23.343Z,98716.16
2022-08-03T18:50:13.413Z,98705.75
2022-08-03T18:53:16.551Z,98718.97
2022-08-03T18:56:02.171Z,98711.34
2022-08-03T18:59:02.531Z,98718.31
2022-08-03T19:02:00.496Z,98717.00
2022-08-03T19:04:46.524Z,98721.94
2022-08-03T19:07:22.272Z,98725.97
2022-08-03T19:10:11.551Z,98722.72
2022-08-03T19:12:48.837Z,98730.16
2022-08-03T19:15:15.898Z,98729.47
2022-08-03T19:17:50.170Z,98724.28
2022-08-03T19:20:21.955Z,98730.09
2022-08-03T19:22:51.168Z,98733.66
2022-08-03T19:25:18.936Z,98726.84
2022-08-03T19:27:49.673Z,98735.94
2022-08-03T19:30:39.526Z,98734.09
2022-08-03T19:33:14.572Z,98733.06
2022-08-03T19:35:49.722Z,98740.97
2022-08-03T19:38:28.428Z,98732.25
2022-08-03T19:41:02.292Z,98732.94
2022-08-03T19:43:52.809Z,98736.81
2022-08-03T19:49:16.806Z,98730.94
2022-08-03T19:52:01.083Z,98725.50
2022-08-03T19:54:39.563Z,98729.25
2022-08-03T19:57:24.364Z,98725.78
2022-08-03T19:59:55.439Z,98733.81
2022-08-03T20:02:27.963Z,98729.66
2022-08-03T20:05:00.529Z,98728.31
2022-08-03T20:07:30.720Z,98734.38
2022-08-03T20:09:59.534Z,98729.19
2022-08-03T20:12:29.294Z,98731.78
2022-08-03T20:14:57.352Z,98733.94
2022-08-03T20:17:54.849Z,98731.03
2022-08-03T20:20:11.981Z,98727.34
2022-08-03T20:22:45.601Z,98726.47
2022-08-03T20:25:16.335Z,98724.25
2022-08-03T20:28:08.111Z,98726.19
2022-08-03T20:30:38.429Z,98728.13
2022-08-03T20:33:09.175Z,98732.16
2022-08-03T20:35:35.783Z,98739.34
2022-08-03T20:38:03.476Z,98736.88
2022-08-03T20:40:30.015Z,98738.72
2022-08-03T20:42:56.521Z,98736.22
2022-08-03T20:45:58.270Z,98733.28
2022-08-03T20:48:10.351Z,98736.31
2022-08-03T20:50:38.659Z,98736.41
2022-08-03T20:53:09.994Z,98735.81
2022-08-03T20:55:48.159Z,98732.94
2022-08-03T20:58:25.853Z,98738.16
2022-08-03T21:00:54.369Z,98732.25
2022-08-03T21:03:20.910Z,98732.16
2022-08-03T21:05:51.857Z,98727.09
2022-08-03T21:08:25.560Z,98735.34
2022-08-03T21:10:56.411Z,98736.22
2022-08-03T21:13:09.087Z,98730.53
2022-08-03T21:13:56.363Z,98735.34
2022-08-03T21:16:26.915Z,98732.66
2022-08-03T21:18:54.485Z,98736.16
2022-08-03T21:21:23.155Z,98734.22
2022-08-03T21:23:53.325Z,98740.25
2022-08-03T21:26:24.609Z,98733.13
2022-08-03T21:28:53.918Z,98725.25
2022-08-03T21:31:24.580Z,98730.91
2022-08-03T21:33:57.537Z,98727.72
2022-08-03T21:36:27.601Z,98734.59
2022-08-03T21:38:57.308Z,98724.63
2022-08-03T21:41:26.452Z,98742.88
2022-08-03T21:43:55.922Z,98728.78
2022-08-03T21:46:23.520Z,98728.41
2022-08-03T21:48:55.978Z,98730.50
2022-08-03T21:51:28.764Z,98733.13
2022-08-03T21:54:02.395Z,98729.69
2022-08-03T21:56:37.141Z,98731.91
2022-08-03T21:59:06.986Z,98726.50
2022-08-03T22:01:38.127Z,98734.72
2022-08-03T22:04:06.861Z,98735.47
2022-08-03T22:06:42.258Z,98728.69
2022-08-03T22:09:09.146Z,98728.41
2022-08-03T22:11:37.405Z,98732.88
2022-08-03T22:14:04.767Z,98723.81
2022-08-03T22:16:31.701Z,98728.41
2022-08-03T22:18:58.312Z,98723.88
2022-08-03T22:21:35.872Z,98726.88
2022-08-03T22:24:05.310Z,98728.78
2022-08-03T22:26:59.588Z,98726.09
2022-08-03T22:29:26.183Z,98727.91
2022-08-03T22:31:58.916Z,98719.13
2022-08-03T22:34:27.284Z,98728.97
2022-08-03T22:37:00.831Z,98727.03
2022-08-03T22:39:28.993Z,98723.28
2022-08-03T22:41:59.038Z,98722.59
2022-08-03T22:44:31.322Z,98723.38
2022-08-03T22:46:58.426Z,98732.94
2022-08-03T22:49:27.992Z,98726.69
2022-08-03T22:51:55.317Z,98732.28
2022-08-03T22:54:23.552Z,98729.66
2022-08-03T22:56:51.107Z,98733.50
2022-08-03T22:59:40.633Z,98730.25
2022-08-03T23:02:15.175Z,98734.09
2022-08-03T23:04:53.144Z,98732.28
2022-08-03T23:07:22.855Z,98730.34
2022-08-03T23:09:49.674Z,98733.25
2022-08-03T23:12:20.209Z,98735.94
2022-08-03T23:14:53.647Z,98729.72
2022-08-03T23:17:22.551Z,98733.47
2022-08-03T23:19:52.163Z,98738.69
2022-08-03T23:22:30.024Z,98738.00
2022-08-03T23:24:58.599Z,98737.13
2022-08-03T23:27:27.318Z,98725.56
2022-08-03T23:29:54.298Z,98729.41
2022-08-03T23:32:21.048Z,98729.59
2022-08-03T23:35:07.607Z,98733.16
2022-08-03T23:38:21.316Z,98731.44
2022-08-03T23:40:28.873Z,98726.22
2022-08-03T23:42:57.133Z,98724.00
2022-08-03T23:45:27.601Z,98720.53
2022-08-03T23:47:54.783Z,98717.91
2022-08-03T23:50:21.666Z,98721.56
2022-08-03T23:53:16.192Z,98711.81
2022-08-03T23:56:12.669Z,98719.75
2022-08-03T23:59:06.051Z,98724.44
